Time;durP1;ratioP1;P1;durP2;ratioP2;P2;SDS_P1;SDS_P2;PMS_P1;PMS_P2;Temp;Humidity;BMP_temperature;BMP_pressure;BME280_temperature;BME280_humidity;BME280_pressure;Samples;Min_cycle;Max_cycle;Signal;HPM_P1;HPM_P2
2022/06/14 00:01:37;;;;;;;8.50;5.57;;;9.60;99.90;;;;;;4979892;28;20046;-64
2022/06/14 00:04:04;;;;;;;7.82;5.07;;;9.70;99.90;;;;;;4984945;28;20581;-65
2022/06/14 00:06:33;;;;;;;9.77;5.40;;;9.80;99.90;;;;;;4982343;28;20023;-65
2022/06/14 00:09:01;;;;;;;7.22;4.70;;;10.00;99.90;;;;;;4984897;28;20018;-69
2022/06/14 00:11:37;;;;;;;8.60;4.90;;;10.10;99.90;;;;;;4980604;28;20022;-64
2022/06/14 00:14:07;;;;;;;10.30;6.43;;;10.20;99.90;;;;;;4980307;28;20065;-63
2022/06/14 00:16:35;;;;;;;9.73;6.47;;;10.50;99.90;;;;;;4979972;28;20030;-65
2022/06/14 00:19:06;;;;;;;8.13;4.85;;;10.60;99.90;;;;;;4979989;28;20053;-62
2022/06/14 00:21:35;;;;;;;10.18;5.40;;;10.80;99.90;;;;;;4980928;28;20073;-65
2022/06/14 00:24:04;;;;;;;6.88;4.43;;;11.00;99.90;;;;;;4982299;28;20522;-62
2022/06/14 00:26:31;;;;;;;10.68;4.15;;;11.20;99.90;;;;;;4980392;28;20023;-62
2022/06/14 00:28:58;;;;;;;6.03;4.03;;;11.30;99.90;;;;;;4979202;28;20430;-65
2022/06/14 00:31:27;;;;;;;7.93;3.60;;;11.40;99.90;;;;;;4980946;28;20050;-68
2022/06/14 00:33:55;;;;;;;6.80;4.35;;;11.50;99.90;;;;;;4984400;28;20395;-62
2022/06/14 00:36:30;;;;;;;7.57;4.68;;;11.80;99.90;;;;;;4981813;28;20133;-69
2022/06/14 00:39:15;;;;;;;6.72;5.05;;;11.80;99.90;;;;;;4980620;28;20580;-66
2022/06/14 00:41:45;;;;;;;6.72;4.05;;;11.90;99.90;;;;;;4979554;28;20027;-66
2022/06/14 00:44:16;;;;;;;5.72;4.30;;;12.00;99.90;;;;;;4981349;28;21448;-66
2022/06/14 00:47:09;;;;;;;5.38;4.63;;;12.00;99.90;;;;;;4980832;28;20034;-67
2022/06/14 00:49:41;;;;;;;;;;;12.10;99.90;;;;;;4979904;28;20065;-65
2022/06/14 00:52:29;;;;;;;5.47;4.80;;;12.30;99.90;;;;;;4981477;28;19914;-64
2022/06/14 00:55:06;;;;;;;7.32;5.63;;;12.60;99.90;;;;;;4980563;28;20105;-66
2022/06/14 00:57:40;;;;;;;6.38;4.88;;;12.70;99.90;;;;;;4973815;28;20030;-65
2022/06/14 01:00:09;;;;;;;6.13;4.55;;;12.80;99.90;;;;;;4981113;28;20559;-64
2022/06/14 01:02:45;;;;;;;7.57;5.47;;;12.80;99.90;;;;;;4979537;28;20034;-63
2022/06/14 01:05:23;;;;;;;8.55;5.25;;;13.00;99.90;;;;;;4980149;28;20034;-65
2022/06/14 01:07:55;;;;;;;6.60;4.95;;;13.20;99.90;;;;;;4978198;28;20030;-63
2022/06/14 01:10:30;;;;;;;7.35;4.88;;;13.20;99.90;;;;;;4980241;28;20557;-62
2022/06/14 01:13:01;;;;;;;5.80;4.40;;;13.30;99.90;;;;;;4981968;28;20034;-63
2022/06/14 01:15:32;;;;;;;6.10;4.10;;;13.60;99.90;;;;;;4988068;28;20628;-68
2022/06/14 01:18:13;;;;;;;6.75;5.57;;;13.70;99.90;;;;;;4983363;28;20038;-62
2022/06/14 01:20:42;;;;;;;8.18;6.38;;;13.80;99.90;;;;;;4979312;28;20031;-62
2022/06/14 01:23:13;;;;;;;6.20;4.63;;;13.80;99.90;;;;;;4986581;28;20034;-63
2022/06/14 01:25:47;;;;;;;5.43;3.88;;;14.10;99.90;;;;;;4983185;28;20030;-68
2022/06/14 01:28:17;;;;;;;5.22;4.75;;;14.20;99.90;;;;;;4979827;28;20829;-65
2022/06/14 01:30:49;;;;;;;9.77;5.82;;;14.40;99.90;;;;;;4984128;28;20047;-65
2022/06/14 01:33:19;;;;;;;5.28;4.70;;;14.60;99.90;;;;;;4985146;28;20026;-62
2022/06/14 01:35:51;;;;;;;6.45;4.35;;;14.60;99.90;;;;;;4988107;28;20520;-64
2022/06/14 01:38:19;;;;;;;5.78;5.10;;;14.60;99.90;;;;;;4965619;28;20069;-62
2022/06/14 01:41:04;;;;;;;9.88;5.20;;;14.80;99.90;;;;;;4983385;28;20072;-63
2022/06/14 01:43:52;;;;;;;9.70;5.85;;;15.00;99.90;;;;;;4983648;28;20430;-68
2022/06/14 01:46:28;;;;;;;8.25;5.90;;;15.10;99.90;;;;;;4982061;28;20042;-68
2022/06/14 01:52:34;;;;;;;13.38;9.40;;;15.30;99.90;;;;;;4982989;28;20049;-67
2022/06/14 01:55:07;;;;;;;10.48;8.65;;;15.30;99.90;;;;;;4983851;28;20041;-63
2022/06/14 01:57:44;;;;;;;12.70;7.15;;;15.20;99.90;;;;;;4981577;28;20058;-63
2022/06/14 02:00:30;;;;;;;13.00;8.18;;;15.30;99.90;;;;;;4983063;28;20026;-64
2022/06/14 02:06:03;;;;;;;11.80;7.20;;;15.50;99.90;;;;;;4985008;28;20093;-63
2022/06/14 02:08:35;;;;;;;13.73;6.78;;;15.60;99.90;;;;;;4987382;28;20039;-66
2022/06/14 02:11:12;;;;;;;9.20;5.90;;;15.90;99.90;;;;;;4978980;28;20018;-62
2022/06/14 02:14:20;;;;;;;11.73;5.93;;;15.80;99.90;;;;;;4980150;28;20038;-65
2022/06/14 02:17:04;;;;;;;9.00;6.38;;;16.00;99.90;;;;;;4910322;29;20036;-60
2022/06/14 02:19:37;;;;;;;9.00;5.45;;;16.20;99.20;;;;;;4910386;29;20092;-67
2022/06/14 02:22:16;;;;;;;10.82;5.28;;;16.20;99.90;;;;;;4910160;29;20047;-61
2022/06/14 02:24:52;;;;;;;9.40;5.18;;;16.40;99.90;;;;;;4909858;29;20032;-66
2022/06/14 02:27:50;;;;;;;9.32;5.03;;;16.70;99.90;;;;;;4910688;29;20123;-62
2022/06/14 02:30:22;;;;;;;8.05;5.22;;;16.80;99.70;;;;;;4910215;29;20393;-65
2022/06/14 02:33:07;;;;;;;11.10;6.57;;;16.90;99.40;;;;;;4911472;29;20036;-66
2022/06/14 02:36:13;;;;;;;12.23;6.07;;;17.00;99.20;;;;;;4911080;29;20362;-66
2022/06/14 02:38:47;;;;;;;7.00;3.92;;;17.00;99.20;;;;;;4548951;29;10000768;-66
2022/06/14 02:41:35;;;;;;;7.43;3.95;;;17.10;98.50;;;;;;4855556;29;20702;-66
2022/06/14 02:44:22;;;;;;;7.25;3.50;;;17.20;98.80;;;;;;4855395;29;20053;-63
2022/06/14 02:46:56;;;;;;;5.55;3.28;;;17.40;98.40;;;;;;4872607;29;20036;-63
2022/06/14 02:49:34;;;;;;;6.05;3.50;;;17.40;97.90;;;;;;4908639;29;20048;-66
2022/06/14 02:52:25;;;;;;;4.90;3.47;;;17.60;97.60;;;;;;4913853;29;20027;-65
2022/06/14 02:55:02;;;;;;;7.00;3.80;;;17.80;97.60;;;;;;4867010;29;20589;-61
2022/06/14 02:57:48;;;;;;;5.80;3.55;;;17.80;97.00;;;;;;4864701;29;20076;-63
2022/06/14 03:00:24;;;;;;;7.57;3.40;;;17.90;97.10;;;;;;4866560;29;20250;-62
2022/06/14 03:03:14;;;;;;;4.90;3.10;;;17.80;96.50;;;;;;4866034;29;20033;-63
2022/06/14 03:06:10;;;;;;;5.85;3.22;;;17.70;97.10;;;;;;4830230;29;20061;-66
2022/06/14 03:08:48;;;;;;;4.50;2.63;;;17.80;97.30;;;;;;4793737;29;20046;-64
2022/06/14 03:11:33;;;;;;;4.70;2.67;;;17.80;97.10;;;;;;4796738;29;20031;-63
2022/06/14 03:14:08;;;;;;;4.10;2.28;;;17.90;97.00;;;;;;4800937;29;20380;-66
2022/06/14 03:16:48;;;;;;;4.60;2.15;;;18.00;96.60;;;;;;4812726;29;20068;-64
2022/06/14 03:19:47;;;;;;;6.30;2.15;;;18.10;96.50;;;;;;4812434;29;20200;-67
2022/06/14 03:22:49;;;;;;;3.15;1.90;;;18.20;96.00;;;;;;4811640;29;20065;-69
2022/06/14 03:25:16;;;;;;;3.60;1.88;;;18.30;95.90;;;;;;4811473;29;20567;-63
2022/06/14 03:28:17;;;;;;;3.28;1.90;;;18.20;95.70;;;;;;4812319;29;20030;-62
2022/06/14 03:31:11;;;;;;;2.58;1.92;;;18.20;96.10;;;;;;4811464;29;20133;-63
2022/06/14 03:33:47;;;;;;;3.00;1.60;;;18.40;95.80;;;;;;4847814;29;20129;-65
2022/06/14 03:36:16;;;;;;;5.05;1.92;;;18.50;95.60;;;;;;4849518;29;20052;-65
2022/06/14 03:38:59;;;;;;;5.10;2.00;;;18.40;95.70;;;;;;4846652;29;20099;-69
2022/06/14 03:41:31;;;;;;;1.88;1.10;;;18.50;95.50;;;;;;4849751;29;20117;-68
2022/06/14 03:44:01;;;;;;;1.20;1.10;;;18.40;95.50;;;;;;4874414;29;20048;-67
2022/06/14 03:46:37;;;;;;;3.00;1.73;;;18.50;95.10;;;;;;4922875;29;20036;-66
2022/06/14 03:49:23;;;;;;;1.15;0.82;;;18.70;94.80;;;;;;4931664;29;20074;-68
2022/06/14 03:52:20;;;;;;;1.00;0.80;;;18.70;94.40;;;;;;4930692;29;20130;-68
2022/06/14 03:55:17;;;;;;;1.75;0.85;;;18.70;93.90;;;;;;4923342;29;21257;-68
2022/06/14 03:58:03;;;;;;;1.75;1.15;;;18.80;93.70;;;;;;4930569;29;20049;-65
2022/06/14 04:00:42;;;;;;;3.55;1.10;;;18.90;93.80;;;;;;4932581;29;20032;-69
2022/06/14 04:03:17;;;;;;;0.90;0.75;;;18.80;93.90;;;;;;4930602;29;20085;-65
2022/06/14 04:06:09;;;;;;;2.47;0.80;;;18.90;93.90;;;;;;4934074;29;20660;-65
2022/06/14 04:08:42;;;;;;;0.73;0.63;;;18.80;93.70;;;;;;4915636;29;20043;-69
2022/06/14 04:11:23;;;;;;;;;;;18.90;93.70;;;;;;4959347;28;20061;-65
2022/06/14 04:13:58;;;;;;;2.10;0.90;;;19.00;93.50;;;;;;4991706;28;19933;-65
2022/06/14 04:16:28;;;;;;;2.15;0.70;;;19.00;93.50;;;;;;4993988;28;20030;-65
2022/06/14 04:19:29;;;;;;;0.65;0.60;;;19.10;93.30;;;;;;4992120;28;20030;-69
2022/06/14 04:22:26;;;;;;;3.20;0.80;;;19.10;93.20;;;;;;4990438;28;20033;-69
2022/06/14 04:25:08;;;;;;;2.10;0.80;;;19.20;93.00;;;;;;4992892;28;20105;-67
2022/06/14 04:27:48;;;;;;;4.10;1.05;;;19.10;92.70;;;;;;4990938;28;20502;-68
2022/06/14 04:30:24;;;;;;;3.65;1.30;;;19.10;93.00;;;;;;4992487;28;20049;-67
2022/06/14 04:33:12;;;;;;;4.50;1.08;;;19.10;93.00;;;;;;4992870;28;20031;-68
2022/06/14 04:35:55;;;;;;;1.50;0.85;;;19.10;92.60;;;;;;4992505;28;20037;-65
2022/06/14 04:38:24;;;;;;;;;;;19.10;92.70;;;;;;4992130;28;20554;-67
2022/06/14 04:41:14;;;;;;;2.50;0.70;;;19.20;92.70;;;;;;4991824;28;19940;-70
2022/06/14 04:43:46;;;;;;;3.75;0.70;;;19.10;92.60;;;;;;4992503;28;20058;-70
2022/06/14 04:46:45;;;;;;;0.60;0.47;;;19.10;92.40;;;;;;4992229;28;20018;-70
2022/06/14 04:49:33;;;;;;;1.63;0.60;;;19.00;92.30;;;;;;4986131;28;20466;-68
2022/06/14 04:52:18;;;;;;;1.33;0.82;;;19.10;92.00;;;;;;4992102;28;20111;-67
2022/06/14 04:55:00;;;;;;;3.25;2.25;;;19.20;92.10;;;;;;4991498;28;20037;-69
2022/06/14 04:57:53;;;;;;;1.70;1.30;;;19.20;91.80;;;;;;4990507;28;20042;-66
2022/06/14 05:00:28;;;;;;;1.33;0.80;;;19.40;91.90;;;;;;4990995;28;20103;-67
2022/06/14 05:03:04;;;;;;;1.02;0.55;;;19.60;91.20;;;;;;4989900;28;20046;-67
2022/06/14 05:05:34;;;;;;;1.88;0.50;;;19.70;90.70;;;;;;4989945;28;20134;-67
2022/06/14 05:08:26;;;;;;;1.63;0.52;;;19.70;90.50;;;;;;4990797;28;20037;-68
2022/06/14 05:10:56;;;;;;;1.83;1.20;;;19.90;90.40;;;;;;4991334;28;20049;-68
2022/06/14 05:13:38;;;;;;;5.57;4.28;;;20.30;90.20;;;;;;4989290;28;20041;-67
2022/06/14 05:16:12;;;;;;;2.30;1.10;;;20.50;89.70;;;;;;4990054;28;20065;-65
2022/06/14 05:19:08;;;;;;;1.60;1.20;;;20.60;88.40;;;;;;4990796;28;20807;-64
2022/06/14 05:21:41;;;;;;;4.40;1.30;;;20.40;89.00;;;;;;4991604;28;20030;-65
2022/06/14 05:24:08;;;;;;;4.00;2.40;;;20.50;89.10;;;;;;4990608;28;20062;-69
2022/06/14 05:26:44;;;;;;;2.50;1.95;;;20.20;88.60;;;;;;4990866;28;20127;-66
2022/06/14 05:29:18;;;;;;;2.60;1.98;;;20.20;89.80;;;;;;5027212;23;20211;-73
2022/06/14 05:32:01;;;;;;;2.55;1.27;;;20.10;89.20;;;;;;4971180;28;20035;-65
2022/06/14 05:34:49;;;;;;;1.23;0.60;;;19.80;89.60;;;;;;4970620;28;20031;-65
2022/06/14 05:37:28;;;;;;;0.93;0.70;;;19.80;89.80;;;;;;4970645;28;20860;-67
2022/06/14 05:40:21;;;;;;;1.70;1.10;;;19.90;89.20;;;;;;4970434;28;20461;-69
2022/06/14 05:42:59;;;;;;;2.55;0.90;;;19.70;89.70;;;;;;4971923;28;20038;-66
2022/06/14 05:45:28;;;;;;;2.75;1.95;;;19.70;89.70;;;;;;4971096;28;20027;-67
2022/06/14 05:48:03;;;;;;;1.45;0.75;;;19.20;90.20;;;;;;4971209;28;20075;-65
2022/06/14 05:50:42;;;;;;;1.33;0.80;;;18.40;91.20;;;;;;4969918;28;20410;-65
2022/06/14 05:53:40;;;;;;;4.45;1.85;;;17.90;92.10;;;;;;4971865;28;20058;-62
2022/06/14 05:56:15;;;;;;;1.73;1.05;;;17.50;92.70;;;;;;4959007;28;20785;-61
2022/06/14 05:59:06;;;;;;;1.52;1.10;;;17.20;93.10;;;;;;4956472;28;20037;-62
2022/06/14 06:01:44;;;;;;;2.50;0.55;;;16.80;94.00;;;;;;4945360;28;20468;-61
2022/06/14 06:04:21;;;;;;;2.05;0.40;;;16.50;94.60;;;;;;4940280;29;20911;-61
2022/06/14 06:06:52;;;;;;;3.75;0.68;;;16.30;95.10;;;;;;4936361;29;20033;-64
2022/06/14 06:09:32;;;;;;;1.40;0.60;;;16.30;95.30;;;;;;4938128;29;20086;-61
2022/06/14 06:12:16;;;;;;;1.50;0.60;;;16.30;95.40;;;;;;4939000;29;20047;-69
2022/06/14 06:14:52;;;;;;;2.70;2.20;;;16.10;95.60;;;;;;4939284;29;20023;-71
2022/06/14 06:17:32;;;;;;;1.85;1.30;;;15.90;96.40;;;;;;4939336;28;20432;-64
2022/06/14 06:20:09;;;;;;;2.00;1.20;;;15.60;97.10;;;;;;4922080;29;20375;-68
2022/06/14 06:22:42;;;;;;;2.42;0.90;;;15.40;97.40;;;;;;4936346;29;20393;-64
2022/06/14 06:25:17;;;;;;;1.63;0.68;;;15.50;97.40;;;;;;4922874;29;20409;-67
2022/06/14 06:27:59;;;;;;;1.58;0.57;;;15.30;97.90;;;;;;4944580;28;20035;-64
2022/06/14 06:30:54;;;;;;;0.60;0.50;;;15.30;98.00;;;;;;4937619;29;20047;-64
2022/06/14 06:33:24;;;;;;;1.10;0.70;;;15.10;98.30;;;;;;4928918;29;20039;-63
2022/06/14 06:36:08;;;;;;;3.78;1.55;;;14.90;99.00;;;;;;4937817;29;20492;-63
2022/06/14 06:39:00;;;;;;;1.60;0.80;;;14.80;99.40;;;;;;4937896;29;20562;-63
2022/06/14 06:41:50;;;;;;;2.42;1.10;;;14.70;99.30;;;;;;4937869;29;20027;-66
2022/06/14 06:44:40;;;;;;;4.05;1.90;;;14.60;99.70;;;;;;4919583;29;20587;-67
2022/06/14 06:47:10;;;;;;;2.83;0.90;;;14.30;99.90;;;;;;4932772;29;20046;-63
2022/06/14 06:49:50;;;;;;;2.17;0.80;;;14.10;99.90;;;;;;4938000;29;20059;-67
2022/06/14 06:52:24;;;;;;;1.00;0.52;;;13.90;99.90;;;;;;4939105;29;20735;-64
2022/06/14 06:55:02;;;;;;;1.77;0.70;;;13.70;99.90;;;;;;4940120;29;20078;-68
2022/06/14 06:57:31;;;;;;;1.58;0.80;;;13.70;99.90;;;;;;4935017;29;20508;-63
2022/06/14 07:00:00;;;;;;;1.95;0.90;;;13.50;99.90;;;;;;4923125;29;20031;-69
2022/06/14 07:02:36;;;;;;;3.60;1.27;;;13.30;99.90;;;;;;4937536;29;20058;-67
2022/06/14 07:05:05;;;;;;;1.58;1.02;;;13.10;99.90;;;;;;4940436;29;20031;-62
2022/06/14 07:07:51;;;;;;;1.95;1.10;;;13.00;99.90;;;;;;4936402;29;20035;-64
2022/06/14 07:10:50;;;;;;;2.13;1.20;;;13.00;99.90;;;;;;4938401;29;20106;-71
2022/06/14 07:13:43;;;;;;;3.95;1.38;;;12.80;99.90;;;;;;4939373;29;20374;-68
2022/06/14 07:16:28;;;;;;;4.95;1.58;;;12.80;99.90;;;;;;4928011;29;20452;-71
2022/06/14 07:19:16;;;;;;;2.80;1.65;;;12.80;99.90;;;;;;4937693;29;20035;-71
2022/06/14 07:21:52;;;;;;;5.97;1.83;;;12.70;99.90;;;;;;4939351;29;20539;-63
2022/06/14 07:24:30;;;;;;;8.68;5.95;;;12.50;99.90;;;;;;4936789;29;20094;-65
2022/06/14 07:27:07;;;;;;;2.80;1.88;;;12.50;99.90;;;;;;4940396;29;20070;-66
2022/06/14 07:29:47;;;;;;;3.83;1.90;;;12.40;99.90;;;;;;4936816;29;20043;-66
2022/06/14 07:32:30;;;;;;;6.07;2.42;;;12.40;99.90;;;;;;4938326;29;20663;-67
2022/06/14 07:34:59;;;;;;;4.93;2.20;;;12.30;99.90;;;;;;4939286;29;20032;-66
2022/06/14 07:37:52;;;;;;;3.50;2.45;;;12.20;99.90;;;;;;4935937;29;20031;-69
2022/06/14 07:40:32;;;;;;;6.35;2.35;;;12.20;99.90;;;;;;4941197;29;20058;-67
2022/06/14 07:43:30;;;;;;;3.65;2.55;;;12.10;99.90;;;;;;4940218;29;20631;-67
2022/06/14 07:46:04;;;;;;;6.10;3.60;;;12.00;99.90;;;;;;4945762;28;20037;-66
2022/06/14 07:48:37;;;;;;;6.15;3.10;;;11.90;99.90;;;;;;4937265;29;20031;-66
2022/06/14 07:51:25;;;;;;;3.92;2.75;;;11.80;99.90;;;;;;4940971;29;20028;-68
2022/06/14 07:54:11;;;;;;;6.60;2.75;;;11.80;99.90;;;;;;4923925;29;20492;-65
2022/06/14 07:57:06;;;;;;;6.43;2.95;;;11.60;99.90;;;;;;4933302;28;20082;-65
2022/06/14 07:59:41;;;;;;;7.03;3.05;;;11.60;99.90;;;;;;4949691;28;20935;-64
2022/06/14 08:02:20;;;;;;;4.53;2.42;;;11.50;99.90;;;;;;4949756;28;20035;-65
2022/06/14 08:05:24;;;;;;;4.45;2.63;;;11.40;99.90;;;;;;4950898;28;20031;-64
2022/06/14 08:07:56;;;;;;;4.95;2.78;;;11.30;99.90;;;;;;4949348;28;20043;-68
2022/06/14 08:10:33;;;;;;;3.97;2.13;;;11.30;99.90;;;;;;4949508;28;20034;-68
2022/06/14 08:13:05;;;;;;;4.28;2.40;;;11.30;99.90;;;;;;4950401;28;20031;-68
2022/06/14 08:15:38;;;;;;;5.85;2.08;;;11.30;99.90;;;;;;4948625;28;20031;-67
2022/06/14 08:18:41;;;;;;;5.53;2.92;;;11.30;99.90;;;;;;4951758;28;21461;-65
2022/06/14 08:21:40;;;;;;;4.38;2.75;;;11.30;99.90;;;;;;4875468;29;20171;-65
2022/06/14 08:24:21;;;;;;;5.85;2.38;;;11.20;99.90;;;;;;4887197;29;20123;-66
2022/06/14 08:27:42;;;;;;;3.20;2.13;;;11.20;99.90;;;;;;4871830;29;20434;-63
2022/06/14 08:30:18;;;;;;;9.00;5.50;;;11.10;99.90;;;;;;4816484;29;20061;-63
2022/06/14 08:32:58;;;;;;;7.28;3.92;;;11.00;99.90;;;;;;4799991;29;20423;-64
2022/06/14 08:35:37;;;;;;;6.82;2.53;;;10.90;99.90;;;;;;4816062;29;20075;-63
2022/06/14 08:38:47;;;;;;;5.90;2.45;;;10.90;99.90;;;;;;4813703;29;20095;-62
2022/06/14 08:41:27;;;;;;;5.05;2.95;;;10.90;99.90;;;;;;4780563;29;20038;-63
2022/06/14 08:44:02;;;;;;;5.90;2.70;;;10.90;99.90;;;;;;4780839;29;20046;-61
2022/06/14 08:46:45;;;;;;;4.68;2.35;;;10.90;99.90;;;;;;4779412;29;20045;-65
2022/06/14 08:49:24;;;;;;;3.90;2.22;;;10.80;99.90;;;;;;4781195;29;20047;-66
2022/06/14 08:52:31;;;;;;;5.25;2.20;;;10.70;99.90;;;;;;4777716;29;20054;-64
2022/06/14 08:55:35;;;;;;;6.85;2.53;;;10.60;99.90;;;;;;4776572;29;20042;-63
2022/06/14 08:58:33;;;;;;;7.82;2.38;;;10.40;99.90;;;;;;4811672;29;21760;-65
2022/06/14 09:01:12;;;;;;;5.68;3.15;;;10.30;99.90;;;;;;4794619;29;20053;-60
2022/06/14 09:03:58;;;;;;;8.00;4.63;;;10.10;99.90;;;;;;4807566;29;20045;-64
2022/06/14 09:06:43;;;;;;;4.22;2.53;;;10.10;99.90;;;;;;4843487;29;20573;-63
2022/06/14 09:09:32;;;;;;;4.85;2.60;;;10.00;99.90;;;;;;4861988;29;20080;-64
2022/06/14 09:12:26;;;;;;;6.70;2.22;;;9.90;99.90;;;;;;4862540;29;20203;-62
2022/06/14 09:15:03;;;;;;;8.43;2.70;;;9.90;99.90;;;;;;4847027;29;20068;-61
2022/06/14 09:17:46;;;;;;;4.50;2.70;;;9.90;99.90;;;;;;4885730;29;20046;-67
2022/06/14 09:20:26;;;;;;;;;;;9.90;99.90;;;;;;4942795;28;20110;-61
2022/06/14 09:23:11;;;;;;;6.50;2.85;;;9.80;99.90;;;;;;4941884;29;19946;-61
2022/06/14 09:25:54;;;;;;;6.88;5.10;;;9.90;99.90;;;;;;4923489;29;20027;-61
2022/06/14 09:29:07;;;;;;;5.55;2.40;;;9.80;99.90;;;;;;4924173;29;20090;-59
2022/06/14 09:32:15;;;;;;;6.43;2.28;;;9.70;99.90;;;;;;4937806;29;20057;-61
2022/06/14 09:35:38;;;;;;;5.03;2.67;;;9.70;99.90;;;;;;4921892;29;20570;-60
2022/06/14 09:38:15;;;;;;;7.53;3.28;;;9.60;99.90;;;;;;4883439;29;20045;-66
2022/06/14 09:40:53;;;;;;;3.72;2.05;;;9.70;99.90;;;;;;4884609;29;20156;-64
2022/06/14 09:43:51;;;;;;;7.45;2.53;;;9.70;99.90;;;;;;4885144;29;20043;-64
2022/06/14 09:46:31;;;;;;;5.43;2.65;;;9.60;99.90;;;;;;4885850;29;20125;-63
2022/06/14 09:49:22;;;;;;;9.00;2.83;;;9.50;99.90;;;;;;4885857;29;20875;-66
2022/06/14 09:52:10;;;;;;;3.83;2.90;;;9.40;99.90;;;;;;4885982;29;20032;-67
2022/06/14 09:55:18;;;;;;;9.85;3.55;;;9.30;99.90;;;;;;4885888;29;21006;-62
2022/06/14 09:57:48;;;;;;;7.20;3.35;;;9.20;99.90;;;;;;4844933;29;20049;-61
2022/06/14 10:00:24;;;;;;;9.18;4.13;;;9.10;99.90;;;;;;4846322;29;20758;-63
2022/06/14 10:03:15;;;;;;;7.13;3.85;;;9.10;99.90;;;;;;4844540;29;20041;-68
2022/06/14 10:05:48;;;;;;;6.15;4.20;;;9.20;99.90;;;;;;4840873;29;20147;-70
2022/06/14 10:08:45;;;;;;;5.95;4.25;;;9.00;99.90;;;;;;4847238;29;20056;-69
2022/06/14 10:11:30;;;;;;;7.97;3.88;;;8.90;99.90;;;;;;4846155;29;20033;-71
2022/06/14 10:14:15;;;;;;;9.18;4.50;;;8.80;99.90;;;;;;4846264;29;20042;-70
2022/06/14 10:17:12;;;;;;;8.55;4.43;;;8.70;99.90;;;;;;4847141;29;20768;-71
2022/06/14 10:20:19;;;;;;;9.68;4.53;;;8.70;99.90;;;;;;4846804;29;20033;-63
2022/06/14 10:22:58;;;;;;;11.75;5.75;;;8.70;99.90;;;;;;4848426;29;20046;-68
2022/06/14 10:28:33;;;;;;;13.10;5.18;;;8.60;99.90;;;;;;4757137;30;20048;-64
2022/06/14 10:31:17;;;;;;;12.77;5.47;;;8.50;99.90;;;;;;4757175;30;20723;-70
2022/06/14 10:33:54;;;;;;;11.93;5.68;;;8.40;99.90;;;;;;4760870;29;20059;-64
2022/06/14 10:36:46;;;;;;;11.38;5.32;;;8.30;99.90;;;;;;4828848;29;20447;-66
2022/06/14 10:39:40;;;;;;;9.35;5.22;;;8.30;99.90;;;;;;4828822;29;20053;-61
2022/06/14 10:42:28;;;;;;;8.18;5.78;;;8.20;99.90;;;;;;4829971;29;20030;-64
2022/06/14 10:45:33;;;;;;;13.60;5.38;;;8.20;99.90;;;;;;4828625;29;20225;-66
2022/06/14 10:48:15;;;;;;;8.60;5.32;;;8.30;99.90;;;;;;4829898;29;20045;-68
2022/06/14 10:51:30;;;;;;;11.18;5.45;;;8.30;99.90;;;;;;4829282;29;20180;-62
2022/06/14 10:54:28;;;;;;;8.85;5.25;;;8.30;99.90;;;;;;4807838;29;20046;-66
2022/06/14 10:57:04;;;;;;;8.82;5.78;;;8.20;99.90;;;;;;4801063;29;20084;-65
2022/06/14 10:59:37;;;;;;;10.27;6.22;;;8.20;99.90;;;;;;4804441;29;20046;-64
2022/06/14 11:02:33;;;;;;;10.50;5.95;;;8.20;99.90;;;;;;4802848;29;20038;-67
2022/06/14 11:05:24;;;;;;;13.32;5.78;;;8.20;99.90;;;;;;4819590;29;20047;-63
2022/06/14 11:08:13;;;;;;;9.23;5.32;;;8.10;99.90;;;;;;4877821;29;21643;-63
2022/06/14 11:11:13;;;;;;;8.75;6.07;;;8.00;99.90;;;;;;4863548;29;20053;-67
2022/06/14 11:13:57;;;;;;;11.18;5.32;;;8.10;99.90;;;;;;4877924;29;20045;-65
2022/06/14 11:16:44;;;;;;;16.05;8.18;;;8.10;99.90;;;;;;4873181;29;20250;-66
2022/06/14 11:22:09;;;;;;;15.50;7.68;;;7.80;99.90;;;;;;4876993;29;20033;-63
2022/06/14 11:24:40;;;;;;;15.23;7.10;;;7.70;99.90;;;;;;4870990;29;20509;-63
2022/06/14 11:27:14;;;;;;;11.20;8.25;;;7.60;99.90;;;;;;4876307;29;20073;-65
2022/06/14 11:30:05;;;;;;;10.75;6.07;;;7.50;99.90;;;;;;4900094;29;20186;-65
2022/06/14 11:32:40;;;;;;;12.68;6.35;;;7.40;99.90;;;;;;4945784;29;20652;-63
2022/06/14 11:35:28;;;;;;;19.98;9.00;;;7.30;99.90;;;;;;4945942;29;20026;-66
2022/06/14 11:38:25;;;;;;;15.02;8.30;;;7.20;99.90;;;;;;4944571;29;20031;-65
2022/06/14 11:41:05;;;;;;;20.50;7.57;;;7.10;99.90;;;;;;4944992;29;20064;-66
2022/06/14 11:43:53;;;;;;;11.05;8.00;;;7.00;99.90;;;;;;4945329;29;20048;-66
2022/06/14 11:46:43;;;;;;;15.63;9.98;;;7.00;99.90;;;;;;4944945;29;20110;-67
2022/06/14 11:49:21;;;;;;;21.67;14.93;;;6.90;99.90;;;;;;4942968;29;20035;-64
2022/06/14 11:52:06;;;;;;;21.33;13.85;;;6.90;99.90;;;;;;4944910;29;20023;-64
2022/06/14 11:54:49;;;;;;;22.40;12.70;;;6.80;99.90;;;;;;4945831;29;20019;-66
2022/06/14 11:57:49;;;;;;;21.55;12.63;;;6.80;99.90;;;;;;4942245;29;20683;-67
2022/06/14 12:00:41;;;;;;;15.80;9.82;;;6.70;99.90;;;;;;4884512;29;20116;-63
2022/06/14 12:03:46;;;;;;;12.23;7.68;;;6.80;99.90;;;;;;4884916;29;20033;-67
2022/06/14 12:06:25;;;;;;;16.92;12.20;;;7.00;99.90;;;;;;4880423;29;20032;-66
2022/06/14 12:09:02;;;;;;;13.68;8.27;;;7.20;99.90;;;;;;4882444;29;20040;-67
2022/06/14 12:11:38;;;;;;;10.88;7.18;;;7.20;99.90;;;;;;4878587;29;20060;-64
2022/06/14 12:14:29;;;;;;;15.07;8.43;;;7.30;99.90;;;;;;4879648;29;20197;-65
2022/06/14 12:17:19;;;;;;;15.00;9.07;;;7.10;99.90;;;;;;4882596;29;20531;-65
2022/06/14 12:19:53;;;;;;;11.15;7.43;;;6.90;99.90;;;;;;4880529;29;20037;-65
2022/06/14 12:22:45;;;;;;;12.48;7.53;;;6.80;99.90;;;;;;4881858;29;20081;-66
2022/06/14 12:28:58;;;;;;;14.00;9.20;;;6.50;99.90;;;;;;4849279;29;20487;-66
2022/06/14 12:31:49;;;;;;;20.17;9.43;;;6.40;99.90;;;;;;4849954;29;20077;-66
2022/06/14 12:34:46;;;;;;;12.25;8.80;;;6.30;99.90;;;;;;4850058;29;20506;-62
2022/06/14 12:37:38;;;;;;;13.23;9.43;;;6.30;99.90;;;;;;4884030;29;20031;-66
2022/06/14 12:40:19;;;;;;;15.93;10.27;;;6.20;99.90;;;;;;4880206;29;20554;-65
2022/06/14 12:43:06;;;;;;;14.13;9.65;;;6.30;99.90;;;;;;4882272;29;20569;-70
2022/06/14 12:45:41;;;;;;;12.63;9.32;;;6.40;99.90;;;;;;4880414;29;20131;-68
2022/06/14 12:48:27;;;;;;;13.48;9.38;;;6.40;99.90;;;;;;4875779;29;20052;-67
2022/06/14 12:51:04;;;;;;;13.45;9.43;;;6.30;99.90;;;;;;4879148;29;20041;-65
2022/06/14 12:53:43;;;;;;;31.50;20.90;;;6.10;99.90;;;;;;4881007;29;20075;-66
2022/06/14 12:56:25;;;;;;;24.50;20.95;;;6.00;99.90;;;;;;4881200;29;20045;-63
2022/06/14 12:58:55;;;;;;;22.60;14.23;;;6.00;99.90;;;;;;4886126;29;20044;-66
2022/06/14 13:01:38;;;;;;;15.57;11.80;;;6.10;99.90;;;;;;4884414;29;20041;-60
2022/06/14 13:04:19;;;;;;;15.90;10.63;;;6.40;99.90;;;;;;4881673;29;20024;-65
2022/06/14 13:06:58;;;;;;;14.75;10.43;;;6.30;99.90;;;;;;4941912;28;20027;-60
2022/06/14 13:09:31;;;;;;;15.20;10.48;;;6.10;99.90;;;;;;4942950;28;20600;-61
2022/06/14 13:12:46;;;;;;;12.85;8.98;;;6.00;99.90;;;;;;4936347;29;20027;-65
2022/06/14 13:15:22;;;;;;;14.35;10.35;;;5.90;99.90;;;;;;4940342;28;20039;-63
2022/06/14 13:17:58;;;;;;;14.30;10.18;;;5.70;99.90;;;;;;4937389;28;20106;-63
2022/06/14 13:20:39;;;;;;;16.27;10.38;;;5.60;99.90;;;;;;4941644;29;20028;-62
2022/06/14 13:23:29;;;;;;;15.15;10.73;;;5.60;99.90;;;;;;4936675;29;20054;-61
2022/06/14 13:26:34;;;;;;;15.30;10.93;;;5.50;99.90;;;;;;4949886;29;20031;-65
2022/06/14 13:29:22;;;;;;;12.95;9.60;;;5.50;99.90;;;;;;4944176;28;20024;-64
2022/06/14 13:32:02;;;;;;;12.80;9.88;;;5.50;99.90;;;;;;4937231;28;20113;-62
2022/06/14 13:34:46;;;;;;;20.27;11.23;;;5.50;99.90;;;;;;4937857;29;20075;-63
2022/06/14 13:37:25;;;;;;;15.82;10.00;;;5.50;99.90;;;;;;4937267;29;20032;-64
2022/06/14 13:40:10;;;;;;;14.65;9.48;;;5.40;99.90;;;;;;4940035;29;20035;-65
2022/06/14 13:42:44;;;;;;;14.32;10.50;;;5.40;99.90;;;;;;4940013;29;20039;-62
2022/06/14 13:45:18;;;;;;;15.88;11.02;;;5.30;99.90;;;;;;4938073;29;20702;-65
2022/06/14 13:48:12;;;;;;;17.67;10.60;;;5.30;99.90;;;;;;4938500;29;20138;-61
2022/06/14 13:50:51;;;;;;;15.32;11.07;;;5.30;99.90;;;;;;4938774;29;20035;-65
2022/06/14 13:53:21;;;;;;;15.18;11.63;;;5.30;99.90;;;;;;4940029;29;20122;-63
2022/06/14 13:56:03;;;;;;;11.48;9.45;;;5.40;99.90;;;;;;4941794;29;20050;-63
2022/06/14 13:58:41;;;;;;;13.35;9.85;;;5.30;99.90;;;;;;4940412;29;20043;-63
2022/06/14 14:01:45;;;;;;;13.38;9.73;;;5.30;99.90;;;;;;4943295;29;20416;-66
2022/06/14 14:04:22;;;;;;;10.52;8.38;;;5.30;99.90;;;;;;4939958;28;20106;-63
2022/06/14 14:20:50;;;;;;;14.55;8.75;;;5.60;99.90;;;;;;4866752;29;20046;-62
2022/06/14 14:23:46;;;;;;;11.82;8.88;;;5.50;99.90;;;;;;4944516;28;20196;-62
2022/06/14 14:26:24;;;;;;;9.80;8.02;;;5.40;99.90;;;;;;4946863;28;20023;-63
2022/06/14 14:28:55;;;;;;;11.20;9.10;;;5.50;99.90;;;;;;4941227;29;20476;-64
2022/06/14 14:31:51;;;;;;;12.65;8.65;;;5.40;99.90;;;;;;4945105;29;20202;-63
2022/06/14 14:34:31;;;;;;;16.13;8.77;;;5.30;99.90;;;;;;4863040;29;20048;-61
2022/06/14 14:37:10;;;;;;;13.27;8.98;;;5.30;99.90;;;;;;4865074;29;20052;-65